Time;durP1;ratioP1;P1;durP2;ratioP2;P2;SDS_P1;SDS_P2;PMS_P1;PMS_P2;Temp;Humidity;BMP_temperature;BMP_pressure;BME280_temperature;BME280_humidity;BME280_pressure;Samples;Min_cycle;Max_cycle;Signal;HPM_P1;HPM_P2
2021/12/13 00:00:43;;;;;;;77.53;19.05;;;;;;;;;;5023303;28;20090;-74
2021/12/13 00:03:28;;;;;;;64.63;18.48;;;;;;;;;;5015555;28;20037;-74
2021/12/13 00:06:03;;;;;;;68.53;18.52;;;10.10;99.90;;;;;;5024346;28;20029;-74
2021/12/13 00:08:33;;;;;;;58.90;17.88;;;10.20;99.90;;;;;;5013893;28;20503;-74
2021/12/13 00:11:12;;;;;;;60.83;18.38;;;10.00;99.90;;;;;;5027926;28;20075;-74
2021/12/13 00:13:45;;;;;;;56.97;19.02;;;;;;;;;;5021929;28;20030;-74
2021/12/13 00:16:12;;;;;;;60.42;20.00;;;10.40;99.90;;;;;;5023942;28;20072;-74
2021/12/13 00:18:40;;;;;;;63.03;21.55;;;;;;;;;;5021270;28;20427;-74
2021/12/13 00:21:13;;;;;;;62.60;21.38;;;;;;;;;;5026995;28;20042;-74
2021/12/13 00:23:48;;;;;;;80.45;23.63;;;;;;;;;;5023260;28;20379;-73
2021/12/13 00:26:21;;;;;;;73.20;23.35;;;;;;;;;;5015772;28;20030;-73
2021/12/13 00:28:47;;;;;;;78.18;22.55;;;;;;;;;;5020719;28;20468;-74
2021/12/13 00:31:25;;;;;;;85.10;24.15;;;;;;;;;;5030326;28;20027;-73
2021/12/13 00:34:09;;;;;;;73.78;23.30;;;;;;;;;;5024540;28;20035;-74
2021/12/13 00:36:50;;;;;;;78.57;22.20;;;10.20;99.90;;;;;;5015857;28;20369;-74
2021/12/13 00:39:25;;;;;;;67.97;22.42;;;;;;;;;;5028436;28;20087;-73
2021/12/13 00:41:51;;;;;;;62.28;20.73;;;;;;;;;;5023928;28;20041;-73
2021/12/13 00:44:27;;;;;;;61.13;20.10;;;;;;;;;;5028199;28;20057;-73
2021/12/13 00:46:54;;;;;;;61.42;19.48;;;;;;;;;;5025492;28;20037;-74
2021/12/13 00:49:22;;;;;;;61.42;19.45;;;;;;;;;;5030714;28;20030;-73
2021/12/13 00:51:51;;;;;;;57.78;19.95;;;;;;;;;;5024662;28;20032;-73
2021/12/13 00:54:19;;;;;;;62.75;20.83;;;;;;;;;;5014197;28;20030;-74
2021/12/13 00:56:48;;;;;;;49.80;17.70;;;;;;;;;;5022872;28;20084;-74
2021/12/13 00:59:20;;;;;;;53.65;18.52;;;10.40;99.90;;;;;;5038213;28;20029;-75
2021/12/13 01:01:49;;;;;;;47.78;18.75;;;;;;;;;;5048722;28;20033;-73
2021/12/13 01:04:15;;;;;;;46.00;18.95;;;;;;;;;;5040817;28;20116;-73
2021/12/13 01:07:00;;;;;;;49.92;18.48;;;;;;;;;;5044464;28;20430;-74
2021/12/13 01:09:45;;;;;;;43.78;17.98;;;;;;;;;;5020138;28;20716;-74
2021/12/13 01:12:13;;;;;;;41.72;17.45;;;;;;;;;;5050332;28;20063;-73
2021/12/13 01:14:53;;;;;;;46.28;18.85;;;10.20;99.90;;;;;;5029144;28;20039;-73
2021/12/13 01:17:37;;;;;;;46.03;20.05;;;10.40;99.90;;;;;;5050074;28;20024;-73
2021/12/13 01:20:10;;;;;;;47.38;19.73;;;;;;;;;;5042962;28;20029;-73
2021/12/13 01:22:48;;;;;;;57.58;19.55;;;;;;;;;;5058263;28;20107;-73
2021/12/13 01:25:41;;;;;;;48.80;20.13;;;;;;;;;;5049919;28;20049;-73
2021/12/13 01:28:10;;;;;;;52.38;20.77;;;;;;;;;;5041470;28;20021;-73
2021/12/13 01:30:39;;;;;;;46.13;19.50;;;;;;;;;;5045872;28;20027;-73
2021/12/13 01:33:09;;;;;;;49.88;21.08;;;10.10;99.90;;;;;;5046552;28;20051;-74
2021/12/13 01:35:39;;;;;;;61.88;20.48;;;;;;;;;;5049263;28;20043;-74
2021/12/13 01:38:08;;;;;;;62.35;23.05;;;10.10;99.90;;;;;;5045189;28;20120;-74
2021/12/13 01:40:35;;;;;;;60.20;22.75;;;;;;;;;;5040487;28;20079;-73
2021/12/13 01:43:06;;;;;;;75.63;23.73;;;;;;;;;;5048531;28;20037;-73
2021/12/13 01:45:35;;;;;;;77.53;24.17;;;;;;;;;;5043562;28;20075;-73
2021/12/13 01:48:02;;;;;;;65.20;22.65;;;10.20;99.90;;;;;;5050788;28;20025;-73
2021/12/13 01:50:47;;;;;;;67.10;22.20;;;10.30;99.90;;;;;;5043393;28;20017;-73
2021/12/13 01:53:14;;;;;;;74.95;22.63;;;;;;;;;;5048907;28;20063;-73
2021/12/13 01:55:43;;;;;;;70.15;23.25;;;;;;;;;;5045137;28;20047;-73
2021/12/13 02:01:11;;;;;;;60.22;20.92;;;10.40;99.90;;;;;;5044663;28;20049;-72
2021/12/13 02:03:50;;;;;;;59.45;19.70;;;;;;;;;;5026158;28;20029;-72
2021/12/13 02:06:23;;;;;;;55.25;18.23;;;;;;;;;;5045723;28;20040;-72
2021/12/13 02:08:52;;;;;;;66.18;19.77;;;;;;;;;;5044449;28;20029;-73
2021/12/13 02:11:18;;;;;;;55.28;17.73;;;;;;;;;;5050532;28;20040;-73
2021/12/13 02:14:03;;;;;;;69.28;18.60;;;;;;;;;;5044190;28;20032;-73
2021/12/13 02:19:23;;;;;;;60.05;17.75;;;10.30;99.90;;;;;;5046145;28;20106;-73
2021/12/13 02:21:51;;;;;;;52.53;16.85;;;;;;;;;;5042121;28;20024;-73
2021/12/13 02:24:17;;;;;;;60.30;18.17;;;;;;;;;;5047754;28;20132;-73
2021/12/13 02:26:47;;;;;;;54.72;17.08;;;10.00;99.90;;;;;;5043812;28;20079;-73
2021/12/13 02:29:34;;;;;;;43.70;15.75;;;;;;;;;;5049116;28;20013;-73
2021/12/13 02:32:01;;;;;;;45.70;15.75;;;10.10;99.90;;;;;;5042013;28;20031;-73
2021/12/13 02:34:30;;;;;;;42.45;14.43;;;;;;;;;;5038055;28;20053;-74
2021/12/13 02:36:56;;;;;;;58.38;16.63;;;;;;;;;;5038517;28;20026;-74
2021/12/13 02:39:30;;;;;;;42.67;15.93;;;10.00;99.90;;;;;;5038134;28;20052;-73
2021/12/13 02:41:56;;;;;;;38.05;14.35;;;;;;;;;;5049427;28;20443;-73
2021/12/13 02:44:37;;;;;;;43.90;15.65;;;10.00;99.90;;;;;;5041462;28;20033;-74
2021/12/13 02:47:05;;;;;;;47.92;14.60;;;;;;;;;;5041137;28;20033;-73
2021/12/13 02:49:33;;;;;;;46.63;14.50;;;;;;;;;;5042641;28;20068;-73
2021/12/13 02:52:03;;;;;;;45.15;13.52;;;10.00;99.90;;;;;;5037059;28;20478;-73
2021/12/13 02:54:36;;;;;;;39.35;11.40;;;9.90;99.90;;;;;;5047324;28;20029;-74
2021/12/13 02:57:08;;;;;;;34.97;11.80;;;;;;;;;;5047834;28;20030;-73
2021/12/13 02:59:39;;;;;;;37.35;11.93;;;10.00;99.90;;;;;;5045278;28;20132;-73
2021/12/13 03:02:13;;;;;;;34.03;11.27;;;9.90;99.90;;;;;;5047569;28;20100;-73
2021/12/13 03:04:39;;;;;;;32.80;10.30;;;;;;;;;;5052738;28;20047;-73
2021/12/13 03:07:19;;;;;;;35.47;10.05;;;;;;;;;;5047341;28;20029;-73
2021/12/13 03:09:48;;;;;;;31.88;10.48;;;9.90;99.90;;;;;;5050873;28;20037;-73
2021/12/13 03:12:16;;;;;;;32.80;9.35;;;;;;;;;;5048253;28;20100;-73
2021/12/13 03:14:45;;;;;;;27.02;10.05;;;;;;;;;;5033642;28;20060;-73
2021/12/13 03:17:52;;;;;;;31.13;9.35;;;9.90;99.90;;;;;;5044114;28;20056;-73
2021/12/13 03:20:21;;;;;;;26.25;8.32;;;;;;;;;;4973060;28;20031;-73
2021/12/13 03:23:18;;;;;;;31.38;9.85;;;9.90;99.90;;;;;;5034510;28;20046;-73
2021/12/13 03:26:06;;;;;;;21.35;8.25;;;10.00;99.90;;;;;;5041392;28;20450;-73
2021/12/13 03:28:35;;;;;;;26.20;8.20;;;;;;;;;;5002530;28;20492;-73
2021/12/13 03:31:10;;;;;;;21.23;6.90;;;;;;;;;;5041552;28;20029;-74
2021/12/13 03:33:42;;;;;;;32.28;8.25;;;;;;;;;;5047477;28;20041;-74
2021/12/13 03:36:13;;;;;;;30.52;7.10;;;9.80;99.90;;;;;;5045483;28;20067;-74
2021/12/13 03:38:41;;;;;;;25.92;7.00;;;;;;;;;;5038842;28;20021;-73
2021/12/13 03:41:09;;;;;;;21.35;6.32;;;;;;;;;;5045921;28;20025;-73
2021/12/13 03:43:40;;;;;;;20.25;7.18;;;;;;;;;;5048285;28;20041;-74
2021/12/13 03:46:07;;;;;;;17.65;5.55;;;;;;;;;;5044781;28;20062;-74
2021/12/13 03:48:35;;;;;;;17.48;5.13;;;9.90;99.90;;;;;;5040158;28;20072;-74
2021/12/13 03:51:04;;;;;;;16.88;5.30;;;;;;;;;;5047477;28;20120;-74
2021/12/13 03:53:31;;;;;;;19.05;6.03;;;;;;;;;;5051360;28;20067;-74
2021/12/13 03:56:02;;;;;;;22.27;5.50;;;;;;;;;;5046227;28;20071;-74
2021/12/13 03:58:30;;;;;;;12.10;4.30;;;;;;;;;;5038255;28;20379;-73
2021/12/13 04:00:59;;;;;;;14.82;3.92;;;;;;;;;;5032248;28;20043;-73
2021/12/13 04:03:27;;;;;;;15.73;4.30;;;;;;;;;;5037253;28;20081;-73
2021/12/13 04:05:54;;;;;;;10.68;3.80;;;;;;;;;;5049272;28;20452;-73
2021/12/13 04:08:21;;;;;;;11.30;3.20;;;;;;;;;;5046343;28;20024;-73
2021/12/13 04:10:58;;;;;;;13.65;2.85;;;9.90;99.90;;;;;;5039757;28;20029;-73
2021/12/13 04:13:35;;;;;;;6.03;2.40;;;9.80;99.90;;;;;;5026184;28;20407;-73
2021/12/13 04:21:14;;;;;;;9.52;3.20;;;;;;;;;;5037367;28;20033;-72
2021/12/13 04:23:41;;;;;;;6.32;2.58;;;;;;;;;;5027211;28;20060;-73
2021/12/13 04:26:09;;;;;;;9.57;2.83;;;;;;;;;;5049764;28;20082;-72
2021/12/13 04:28:40;;;;;;;7.70;2.70;;;;;;;;;;5043984;28;20025;-75
2021/12/13 04:31:11;;;;;;;9.40;2.42;;;10.10;99.90;;;;;;5049932;28;20069;-75
2021/12/13 04:33:42;;;;;;;6.15;2.25;;;;;;;;;;5028663;28;20044;-72
2021/12/13 04:36:14;;;;;;;14.32;3.83;;;9.90;99.90;;;;;;5044108;28;20425;-72
2021/12/13 04:38:51;;;;;;;8.40;2.92;;;;;;;;;;5043087;28;20021;-74
2021/12/13 04:41:34;;;;;;;7.53;2.47;;;10.00;99.90;;;;;;5042736;28;20032;-74
2021/12/13 04:44:08;;;;;;;7.50;2.88;;;10.00;99.90;;;;;;5051930;28;20033;-74
2021/12/13 04:46:35;;;;;;;6.40;2.70;;;;;;;;;;5045982;28;20028;-74
2021/12/13 04:49:07;;;;;;;13.80;3.67;;;9.90;99.90;;;;;;5044558;28;20091;-74
2021/12/13 04:51:47;;;;;;;10.65;2.95;;;9.90;99.90;;;;;;5046117;28;20017;-74
2021/12/13 04:54:15;;;;;;;10.52;3.05;;;;;;;;;;5047811;28;20032;-74
2021/12/13 04:56:41;;;;;;;8.93;3.20;;;;;;;;;;5046911;28;20060;-74
2021/12/13 04:59:09;;;;;;;16.33;4.45;;;;;;;;;;5041419;28;20064;-74
2021/12/13 05:01:35;;;;;;;9.27;3.00;;;;;;;;;;5047033;28;20029;-73
2021/12/13 05:04:02;;;;;;;8.30;3.42;;;;;;;;;;5046505;28;20041;-74
2021/12/13 05:06:30;;;;;;;8.55;3.22;;;;;;;;;;5038639;28;20100;-74
2021/12/13 05:08:59;;;;;;;7.82;3.05;;;9.90;99.90;;;;;;5045195;28;20084;-74
2021/12/13 05:11:35;;;;;;;12.55;4.93;;;9.90;99.90;;;;;;5050560;28;20022;-74
2021/12/13 05:14:01;;;;;;;13.38;4.18;;;;;;;;;;5040231;28;20025;-73
2021/12/13 05:16:40;;;;;;;14.55;4.40;;;;;;;;;;5040407;28;20080;-74
2021/12/13 05:19:08;;;;;;;9.70;4.82;;;;;;;;;;5048195;28;20041;-73
2021/12/13 05:21:34;;;;;;;9.43;4.70;;;;;;;;;;5029619;28;20051;-73
2021/12/13 05:24:01;;;;;;;13.75;5.70;;;;;;;;;;5044964;28;20037;-73
2021/12/13 05:26:57;;;;;;;12.40;4.60;;;;;;;;;;5037832;28;20057;-74
2021/12/13 05:29:36;;;;;;;10.32;5.22;;;9.60;99.90;;;;;;5030755;28;20479;-74
2021/12/13 05:32:07;;;;;;;23.80;5.63;;;;;;;;;;5026646;28;20026;-73
2021/12/13 05:34:38;;;;;;;17.42;5.15;;;;;;;;;;5038611;28;20064;-74
2021/12/13 05:37:07;;;;;;;10.57;4.78;;;9.80;99.90;;;;;;5043462;28;20057;-73
2021/12/13 05:39:34;;;;;;;11.95;5.03;;;;;;;;;;5035830;28;20387;-73
2021/12/13 05:42:03;;;;;;;15.70;5.57;;;;;;;;;;5047435;28;20490;-74
2021/12/13 05:44:32;;;;;;;7.65;4.82;;;;;;;;;;5042511;28;20502;-73
2021/12/13 05:46:59;;;;;;;13.40;5.40;;;;;;;;;;5049081;28;20039;-73
2021/12/13 05:49:30;;;;;;;12.05;4.88;;;;;;;;;;5042907;28;20099;-75
2021/12/13 05:52:30;;;;;;;11.60;5.95;;;9.70;99.90;;;;;;5044554;28;20037;-73
2021/12/13 05:55:01;;;;;;;17.08;6.50;;;9.70;99.90;;;;;;5027697;28;20046;-75
2021/12/13 05:57:34;;;;;;;11.68;6.28;;;;;;;;;;5036408;28;20025;-74
2021/12/13 06:00:21;;;;;;;11.80;6.60;;;9.70;99.90;;;;;;5035200;28;20796;-74
2021/12/13 06:03:16;;;;;;;12.75;6.45;;;9.80;99.90;;;;;;5039692;28;20400;-74
2021/12/13 06:05:52;;;;;;;22.15;10.57;;;9.80;99.90;;;;;;5040876;28;20025;-74
2021/12/13 06:08:31;;;;;;;15.20;7.47;;;;;;;;;;5049492;28;20024;-75
2021/12/13 06:11:01;;;;;;;19.05;9.38;;;;;;;;;;5047367;28;20038;-76
2021/12/13 06:13:42;;;;;;;16.02;8.13;;;9.50;99.90;;;;;;5043546;28;20372;-74
2021/12/13 06:16:09;;;;;;;16.92;7.38;;;;;;;;;;5040542;28;20044;-75
2021/12/13 06:18:44;;;;;;;15.95;8.20;;;;;;;;;;5031457;28;20037;-74
2021/12/13 06:21:30;;;;;;;17.25;7.68;;;;;;;;;;5037564;28;20616;-74
2021/12/13 06:23:56;;;;;;;24.30;7.55;;;;;;;;;;5039395;28;20056;-73
2021/12/13 06:26:27;;;;;;;15.90;8.40;;;;;;;;;;5035585;28;20065;-73
2021/12/13 06:28:55;;;;;;;12.60;7.05;;;;;;;;;;5036398;28;20431;-73
2021/12/13 06:31:21;;;;;;;13.35;7.65;;;9.60;99.90;;;;;;5040034;28;20032;-74
2021/12/13 06:33:51;;;;;;;15.38;7.93;;;9.70;99.90;;;;;;5038022;28;20029;-74
2021/12/13 06:36:30;;;;;;;22.67;13.15;;;9.50;99.90;;;;;;5040610;28;20029;-74
2021/12/13 06:38:58;;;;;;;35.38;21.05;;;;;;;;;;5041256;28;20037;-75
2021/12/13 06:41:27;;;;;;;23.80;14.20;;;;;;;;;;5043929;28;22474;-74
2021/12/13 06:44:00;;;;;;;15.65;7.95;;;;;;;;;;5042918;28;20056;-74
2021/12/13 06:46:26;;;;;;;17.15;7.95;;;;;;;;;;5036070;28;20168;-73
2021/12/13 06:49:11;;;;;;;17.25;8.60;;;;;;;;;;5039083;28;20159;-74
2021/12/13 06:51:41;;;;;;;14.82;7.32;;;9.50;99.90;;;;;;5034774;28;20033;-73
2021/12/13 06:54:13;;;;;;;15.90;7.60;;;9.60;99.90;;;;;;5034002;28;20068;-75
2021/12/13 06:56:40;;;;;;;11.23;7.90;;;;;;;;;;5041443;28;20021;-75
2021/12/13 06:59:08;;;;;;;12.68;8.00;;;9.90;99.90;;;;;;5034016;28;22722;-74
2021/12/13 07:01:35;;;;;;;17.55;8.20;;;;;;;;;;5042590;28;20055;-74
2021/12/13 07:04:05;;;;;;;20.38;8.45;;;9.50;99.90;;;;;;5038293;28;20049;-75
2021/12/13 07:06:31;;;;;;;12.60;7.70;;;;;;;;;;5036740;28;20510;-74
2021/12/13 07:09:07;;;;;;;33.22;17.85;;;;;;;;;;5021542;28;20041;-75
2021/12/13 07:11:41;;;;;;;16.10;10.23;;;;;;;;;;5044781;28;20538;-74
2021/12/13 07:14:09;;;;;;;17.23;9.13;;;;;;;;;;5038661;28;20029;-73
2021/12/13 07:16:38;;;;;;;15.50;8.65;;;;;;;;;;5039886;28;20491;-73
2021/12/13 07:19:18;;;;;;;19.98;11.77;;;;;;;;;;5039161;28;20032;-73
2021/12/13 07:22:03;;;;;;;17.38;10.77;;;9.50;99.90;;;;;;5041746;28;20025;-73
2021/12/13 07:24:48;;;;;;;16.77;10.88;;;;;;;;;;5042605;28;20394;-72
2021/12/13 07:27:29;;;;;;;15.40;10.48;;;9.50;99.90;;;;;;5037484;28;20052;-73
2021/12/13 07:29:57;;;;;;;20.55;11.10;;;;;;;;;;5047406;28;20393;-74
2021/12/13 07:32:31;;;;;;;16.42;10.93;;;;;;;;;;5040236;28;20537;-73
2021/12/13 07:34:57;;;;;;;19.13;11.23;;;;;;;;;;5047541;28;20033;-74
2021/12/13 07:37:36;;;;;;;18.10;11.77;;;;;;;;;;5041074;28;20140;-75
2021/12/13 07:40:20;;;;;;;17.10;12.07;;;;;;;;;;5034738;28;20112;-75
2021/12/13 07:42:59;;;;;;;22.00;12.25;;;;;;;;;;5027286;28;20037;-74
2021/12/13 07:45:31;;;;;;;21.08;12.10;;;;;;;;;;5032786;28;20033;-75
2021/12/13 07:47:58;;;;;;;27.10;13.63;;;;;;;;;;5051366;28;20116;-75
2021/12/13 07:50:24;;;;;;;27.17;15.05;;;;;;;;;;5043709;28;20020;-74
2021/12/13 07:52:55;;;;;;;18.73;13.38;;;;;;;;;;5041482;28;20064;-74
2021/12/13 07:55:23;;;;;;;20.60;14.05;;;;;;;;;;5041795;28;20064;-75
2021/12/13 07:57:50;;;;;;;22.95;13.48;;;;;;;;;;5052850;28;20033;-74
2021/12/13 08:00:18;;;;;;;23.33;14.55;;;;;;;;;;5042993;28;20037;-73
2021/12/13 08:02:56;;;;;;;23.58;14.20;;;;;;;;;;5040660;28;20064;-74
2021/12/13 08:05:25;;;;;;;21.77;14.45;;;;;;;;;;5044976;28;20035;-75
2021/12/13 08:07:54;;;;;;;20.20;15.13;;;;;;;;;;5061985;28;20426;-76
2021/12/13 08:10:28;;;;;;;21.83;15.18;;;9.60;99.90;;;;;;5029866;28;20021;-74
2021/12/13 08:13:06;;;;;;;22.45;14.63;;;9.60;99.90;;;;;;5047954;28;20083;-74
2021/12/13 08:15:58;;;;;;;20.45;14.38;;;;;;;;;;5054167;28;20059;-73
2021/12/13 08:18:37;;;;;;;28.87;16.10;;;9.60;99.90;;;;;;5037955;28;20127;-74
2021/12/13 08:21:06;;;;;;;25.52;17.65;;;;;;;;;;5034590;28;20640;-73
2021/12/13 08:23:35;;;;;;;22.50;16.23;;;;;;;;;;5045332;28;20029;-73
2021/12/13 08:26:04;;;;;;;23.15;15.85;;;;;;;;;;5027719;28;20057;-73
2021/12/13 08:28:49;;;;;;;25.00;16.35;;;;;;;;;;5043605;28;20037;-73
2021/12/13 08:31:26;;;;;;;25.23;16.85;;;;;;;;;;5039240;28;20037;-73
2021/12/13 08:33:55;;;;;;;34.15;16.13;;;;;;;;;;5056443;28;20025;-74
2021/12/13 08:36:24;;;;;;;25.00;16.15;;;;;;;;;;5044661;28;20033;-73
2021/12/13 08:38:59;;;;;;;27.25;16.13;;;;;;;;;;5040545;28;20040;-73
2021/12/13 08:41:30;;;;;;;22.48;15.88;;;;;;;;;;5046464;28;20057;-74
2021/12/13 08:44:02;;;;;;;25.15;16.95;;;;;;;;;;5040067;28;20033;-74
2021/12/13 08:46:31;;;;;;;27.55;14.90;;;;;;;;;;5040926;28;20113;-74
2021/12/13 08:48:58;;;;;;;25.05;16.25;;;;;;;;;;5039217;28;20104;-74
2021/12/13 08:51:28;;;;;;;23.77;15.35;;;9.60;99.90;;;;;;5054280;28;20052;-74
2021/12/13 08:54:21;;;;;;;20.52;15.40;;;10.00;99.90;;;;;;5048107;28;20032;-75
2021/12/13 08:56:51;;;;;;;29.08;17.35;;;;;;;;;;5035672;28;20045;-75
2021/12/13 08:59:23;;;;;;;38.53;23.55;;;;;;;;;;5042680;28;20045;-74
2021/12/13 09:01:56;;;;;;;20.73;14.75;;;10.00;99.90;;;;;;5047917;28;20121;-75
2021/12/13 09:04:32;;;;;;;20.55;15.00;;;10.00;99.90;;;;;;5040459;28;20095;-75
2021/12/13 09:07:00;;;;;;;21.73;14.75;;;;;;;;;;5029748;28;20036;-73
2021/12/13 09:09:27;;;;;;;23.17;15.32;;;;;;;;;;5050227;28;20116;-74
2021/12/13 09:11:57;;;;;;;22.88;14.57;;;;;;;;;;5050218;28;20033;-73
2021/12/13 09:14:23;;;;;;;17.90;13.48;;;;;;;;;;5042314;28;20477;-74
2021/12/13 09:17:14;;;;;;;24.58;14.32;;;;;;;;;;5048159;28;20044;-74
2021/12/13 09:19:46;;;;;;;20.45;13.70;;;;;;;;;;5040348;28;20108;-74
2021/12/13 09:22:15;;;;;;;44.60;24.67;;;;;;;;;;5029338;28;20040;-76
2021/12/13 09:24:44;;;;;;;28.05;18.27;;;;;;;;;;5047050;28;20042;-75
2021/12/13 09:27:23;;;;;;;18.55;12.43;;;10.20;99.90;;;;;;5044582;28;20043;-74
2021/12/13 09:30:17;;;;;;;21.75;14.23;;;10.00;99.90;;;;;;5041779;28;20049;-74
2021/12/13 09:32:43;;;;;;;17.58;12.88;;;;;;;;;;5014787;28;20069;-74
2021/12/13 09:35:35;;;;;;;21.77;13.05;;;;;;;;;;5029984;28;20056;-74
2021/12/13 09:38:04;;;;;;;20.08;13.85;;;;;;;;;;4993110;28;20041;-74
2021/12/13 09:40:34;;;;;;;20.25;13.48;;;;;;;;;;5019788;28;20092;-74
2021/12/13 09:43:00;;;;;;;18.38;12.70;;;;;;;;;;5028575;28;20084;-74
2021/12/13 09:45:36;;;;;;;17.95;12.88;;;10.10;99.90;;;;;;5039249;28;20043;-74
2021/12/13 09:48:23;;;;;;;18.25;12.77;;;;;;;;;;5043852;28;20025;-74
2021/12/13 09:50:51;;;;;;;22.83;15.43;;;;;;;;;;5039586;28;20025;-74
2021/12/13 09:53:17;;;;;;;23.42;13.77;;;;;;;;;;5031256;28;20059;-75
2021/12/13 09:55:47;;;;;;;25.25;15.10;;;10.10;99.90;;;;;;5039814;28;20041;-75
2021/12/13 09:58:17;;;;;;;19.88;14.70;;;;;;;;;;5035545;28;20044;-75
2021/12/13 10:01:04;;;;;;;18.63;13.93;;;10.10;99.90;;;;;;5046707;28;20029;-73
2021/12/13 10:03:52;;;;;;;17.27;11.48;;;;;;;;;;5029765;28;20044;-75
2021/12/13 10:06:23;;;;;;;27.75;18.38;;;10.10;99.90;;;;;;5039548;28;20388;-75
2021/12/13 10:08:52;;;;;;;19.58;12.45;;;;;;;;;;5040000;28;20515;-76
2021/12/13 10:11:23;;;;;;;17.10;12.68;;;;;;;;;;5038611;28;20073;-74
2021/12/13 10:13:50;;;;;;;15.77;11.10;;;;;;;;;;5045366;28;20065;-75
2021/12/13 10:16:19;;;;;;;15.52;11.80;;;;;;;;;;5044830;28;20112;-75
2021/12/13 10:18:46;;;;;;;19.52;12.70;;;;;;;;;;5043574;28;20033;-75
2021/12/13 10:21:15;;;;;;;17.58;11.88;;;;;;;;;;5036000;28;20036;-75
2021/12/13 10:23:46;;;;;;;21.00;12.15;;;10.30;99.90;;;;;;5024646;28;20536;-75
2021/12/13 10:26:12;;;;;;;16.58;11.93;;;;;;;;;;5037003;28;20047;-75
2021/12/13 10:28:39;;;;;;;16.92;11.27;;;;;;;;;;5025906;28;20029;-74
2021/12/13 10:31:08;;;;;;;13.18;10.95;;;;;;;;;;5033900;28;20021;-75
2021/12/13 10:33:35;;;;;;;23.30;12.02;;;;;;;;;;5033678;28;20025;-75
2021/12/13 10:36:02;;;;;;;17.85;11.63;;;;;;;;;;5033541;28;20108;-76
2021/12/13 10:38:43;;;;;;;19.45;11.65;;;10.20;99.90;;;;;;5041750;28;20052;-75
2021/12/13 10:41:12;;;;;;;19.23;13.07;;;;;;;;;;5045545;28;20111;-76
2021/12/13 10:43:41;;;;;;;17.42;11.45;;;;;;;;;;5024639;28;20033;-75
2021/12/13 10:46:16;;;;;;;16.67;11.93;;;;;;;;;;5041080;28;20034;-75
2021/12/13 10:48:46;;;;;;;17.55;11.35;;;;;;;;;;5041572;28;20039;-75
2021/12/13 10:51:12;;;;;;;15.70;11.95;;;;;;;;;;5039364;28;20534;-75
2021/12/13 10:53:41;;;;;;;16.20;11.57;;;10.50;99.90;;;;;;5045593;28;20159;-75
2021/12/13 10:56:13;;;;;;;23.42;12.90;;;10.10;99.90;;;;;;5042063;28;20021;-75
2021/12/13 10:58:43;;;;;;;33.65;19.45;;;;;;;;;;5042838;28;20437;-77
2021/12/13 11:01:21;;;;;;;29.55;17.85;;;;;;;;;;5043999;28;20132;-76
2021/12/13 11:03:48;;;;;;;22.45;13.93;;;;;;;;;;5041140;28;20125;-76
2021/12/13 11:06:15;;;;;;;22.77;13.23;;;;;;;;;;5038356;28;20033;-76
2021/12/13 11:08:43;;;;;;;16.63;12.13;;;10.40;99.90;;;;;;5035508;28;20041;-76
2021/12/13 11:11:13;;;;;;;17.58;12.38;;;;;;;;;;5028352;28;20025;-76
2021/12/13 11:13:40;;;;;;;19.27;12.95;;;;;;;;;;5048306;28;20115;-73
2021/12/13 11:16:12;;;;;;;17.48;11.77;;;10.50;99.90;;;;;;5045373;28;20117;-74
2021/12/13 11:18:38;;;;;;;17.63;12.30;;;;;;;;;;5046346;28;20044;-76
2021/12/13 11:21:12;;;;;;;19.83;12.82;;;10.60;99.90;;;;;;5047385;28;20033;-75
2021/12/13 11:23:38;;;;;;;18.17;12.15;;;;;;;;;;5052127;28;20078;-77
2021/12/13 11:26:06;;;;;;;20.83;11.75;;;;;;;;;;5044034;28;20032;-76
2021/12/13 11:28:33;;;;;;;58.97;33.88;;;;;;;;;;5026001;28;20029;-78
2021/12/13 11:31:01;;;;;;;19.20;14.18;;;;;;;;;;5044624;28;20467;-77
2021/12/13 11:33:29;;;;;;;19.23;12.18;;;;;;;;;;5032453;28;20031;-77
2021/12/13 11:36:10;;;;;;;22.27;13.10;;;;;;;;;;5043323;28;20151;-77
2021/12/13 11:38:55;;;;;;;20.02;12.52;;;;;;;;;;5045915;28;20041;-77
2021/12/13 11:41:40;;;;;;;20.85;14.07;;;;;;;;;;5043281;28;20038;-77
2021/12/13 11:44:09;;;;;;;39.88;24.17;;;;;;;;;;5043531;28;20057;-77
2021/12/13 11:47:03;;;;;;;22.73;13.90;;;10.70;99.90;;;;;;5042965;28;20060;-76
2021/12/13 11:50:03;;;;;;;17.10;11.65;;;10.70;99.90;;;;;;5043446;28;20023;-77
2021/12/13 11:52:48;;;;;;;20.65;12.52;;;;;;;;;;5033984;28;20025;-77
2021/12/13 11:55:28;;;;;;;26.65;12.75;;;;;;;;;;5051820;28;20040;-77
2021/12/13 11:58:13;;;;;;;28.35;14.18;;;;;;;;;;5040093;28;20045;-77
2021/12/13 12:01:06;;;;;;;21.90;14.10;;;10.50;99.90;;;;;;5048861;28;20395;-77
2021/12/13 12:04:09;;;;;;;23.05;12.07;;;10.70;99.90;;;;;;5043009;28;20037;-77
2021/12/13 12:06:35;;;;;;;;;;;;;;;;;;5042261;28;20037;-78
2021/12/13 12:09:04;;;;;;;35.50;20.48;;;;;;;;;;5035358;28;19905;-77
2021/12/13 12:12:07;;;;;;;36.25;20.58;;;10.40;99.90;;;;;;5048900;28;20116;-77
2021/12/13 12:14:34;;;;;;;22.38;13.35;;;;;;;;;;5047467;28;20410;-76
2021/12/13 12:17:00;;;;;;;26.85;13.43;;;;;;;;;;5042735;28;20553;-76
2021/12/13 12:19:28;;;;;;;24.02;12.45;;;;;;;;;;5035259;28;20088;-76
2021/12/13 12:21:54;;;;;;;21.90;13.13;;;;;;;;;;5041663;28;20025;-76
2021/12/13 12:24:24;;;;;;;22.23;13.07;;;;;;;;;;5040797;28;20029;-76
2021/12/13 12:26:57;;;;;;;19.90;12.60;;;10.50;99.90;;;;;;5044624;28;20100;-77
2021/12/13 12:29:25;;;;;;;17.60;11.73;;;;;;;;;;5046505;28;20022;-76
2021/12/13 12:31:57;;;;;;;19.15;12.52;;;;;;;;;;5049031;28;20035;-76
2021/12/13 12:34:23;;;;;;;20.27;12.20;;;;;;;;;;5037009;28;20025;-76
2021/12/13 12:36:58;;;;;;;22.92;11.75;;;;;;;;;;5034721;28;20075;-76
2021/12/13 12:39:44;;;;;;;16.92;11.55;;;;;;;;;;5043142;28;20549;-76
2021/12/13 12:42:31;;;;;;;25.60;11.95;;;10.50;99.90;;;;;;5040985;28;20038;-75
2021/12/13 12:44:57;;;;;;;16.05;11.13;;;;;;;;;;5040578;28;20112;-76
2021/12/13 12:47:29;;;;;;;20.85;11.35;;;;;;;;;;5039919;28;20104;-74
2021/12/13 12:50:11;;;;;;;25.90;13.00;;;;;;;;;;5042302;28;20091;-76
2021/12/13 12:52:46;;;;;;;17.90;11.27;;;;;;;;;;5038931;28;20025;-74
2021/12/13 12:55:14;;;;;;;21.17;11.73;;;;;;;;;;5043126;28;20301;-75
2021/12/13 12:57:40;;;;;;;18.45;11.25;;;;;;;;;;5043787;28;20033;-74
2021/12/13 13:00:06;;;;;;;14.93;11.02;;;;;;;;;;5050268;28;20092;-74
2021/12/13 13:02:33;;;;;;;19.33;11.63;;;;;;;;;;5041855;28;20030;-74
2021/12/13 13:05:04;;;;;;;23.05;11.93;;;10.80;99.90;;;;;;5049508;28;20483;-74
2021/12/13 13:07:32;;;;;;;19.42;11.32;;;;;;;;;;5038922;28;20021;-74
2021/12/13 13:12:49;;;;;;;20.92;11.18;;;;;;;;;;5040616;28;20034;-74
2021/12/13 13:15:26;;;;;;;17.25;10.55;;;;;;;;;;5042848;28;20033;-75
2021/12/13 13:18:00;;;;;;;18.05;11.13;;;11.10;99.90;;;;;;5037807;28;20063;-74
2021/12/13 13:20:29;;;;;;;18.52;10.27;;;;;;;;;;5045964;28;20476;-75
2021/12/13 13:22:56;;;;;;;21.33;12.07;;;;;;;;;;5041050;28;20040;-74
2021/12/13 13:25:28;;;;;;;18.92;11.95;;;10.90;99.90;;;;;;5041748;28;20026;-75
2021/12/13 13:27:55;;;;;;;18.75;11.52;;;;;;;;;;5046834;28;20029;-74
2021/12/13 13:30:28;;;;;;;18.55;11.57;;;11.00;99.90;;;;;;5048325;28;20380;-74
2021/12/13 13:32:54;;;;;;;23.83;13.57;;;;;;;;;;5044703;28;20506;-75
2021/12/13 13:35:20;;;;;;;22.70;13.50;;;;;;;;;;5043485;28;20121;-74
2021/12/13 13:37:46;;;;;;;20.60;12.85;;;;;;;;;;5026782;28;20241;-75
2021/12/13 13:40:20;;;;;;;22.00;14.00;;;;;;;;;;5039955;28;20029;-75
2021/12/13 13:42:48;;;;;;;21.83;12.68;;;;;;;;;;5042702;28;20479;-74
2021/12/13 13:45:20;;;;;;;22.77;13.77;;;;;;;;;;5049514;28;20475;-75
2021/12/13 13:47:50;;;;;;;22.90;12.95;;;10.90;99.90;;;;;;5048624;28;20607;-74
2021/12/13 13:50:21;;;;;;;20.45;14.00;;;11.10;99.90;;;;;;5014540;28;20494;-77
2021/12/13 13:52:49;;;;;;;19.60;12.90;;;11.10;99.90;;;;;;5043568;28;20442;-77
2021/12/13 13:55:38;;;;;;;26.25;12.07;;;;;;;;;;5027974;28;20399;-75
2021/12/13 13:58:07;;;;;;;22.27;13.27;;;10.90;99.90;;;;;;5027696;28;20491;-75
2021/12/13 14:00:36;;;;;;;28.67;14.05;;;;;;;;;;5027161;28;20053;-76
2021/12/13 14:03:03;;;;;;;18.20;11.50;;;11.00;99.90;;;;;;5026707;28;20065;-75
2021/12/13 14:05:34;;;;;;;24.35;12.55;;;10.80;99.90;;;;;;5025667;28;20055;-75
2021/12/13 14:08:00;;;;;;;20.92;12.95;;;;;;;;;;5012756;28;20025;-75
2021/12/13 14:10:27;;;;;;;21.05;12.90;;;;;;;;;;5019597;28;20079;-75
2021/12/13 14:13:05;;;;;;;29.23;15.77;;;;;;;;;;5030300;28;20060;-76
2021/12/13 14:15:35;;;;;;;22.55;14.55;;;;;;;;;;5022683;28;20025;-75
2021/12/13 14:18:04;;;;;;;18.45;12.73;;;;;;;;;;5022888;28;20068;-75
2021/12/13 14:20:35;;;;;;;22.63;13.15;;;10.90;99.90;;;;;;5022063;28;20022;-75
2021/12/13 14:23:14;;;;;;;29.63;14.98;;;;;;;;;;5026793;28;20123;-75
2021/12/13 14:25:43;;;;;;;23.98;13.85;;;10.70;99.90;;;;;;5023635;28;20069;-75
2021/12/13 14:28:10;;;;;;;20.15;13.63;;;;;;;;;;5023510;28;20026;-75
2021/12/13 14:30:41;;;;;;;24.98;15.30;;;;;;;;;;5011337;28;20036;-75
2021/12/13 14:33:24;;;;;;;25.13;14.43;;;;;;;;;;5022398;28;20403;-75